createdAt,value
2019-04-26T00:00:52.777Z,68.33
2019-04-26T00:03:37.879Z,69.58
2019-04-26T00:06:08.983Z,68.88
2019-04-26T00:08:38.749Z,70.51
2019-04-26T00:11:24.324Z,72.31
2019-04-26T00:13:57.232Z,71.64
2019-04-26T00:16:27.373Z,70.85
2019-04-26T00:18:55.801Z,70.11
2019-04-26T00:21:24.239Z,69.81
2019-04-26T00:23:53.198Z,69.20
2019-04-26T00:26:22.064Z,69.17
2019-04-26T00:28:50.659Z,68.68
2019-04-26T00:31:19.249Z,68.40
2019-04-26T00:33:47.745Z,68.76
2019-04-26T00:36:16.662Z,68.68
2019-04-26T00:38:45.241Z,68.97
2019-04-26T00:41:14.116Z,68.91
2019-04-26T00:43:43.187Z,69.08
2019-04-26T00:46:14.625Z,69.06
2019-04-26T00:48:44.590Z,68.71
2019-04-26T00:51:15.218Z,69.19
2019-04-26T00:53:46.220Z,68.92
2019-04-26T00:56:16.079Z,69.22
2019-04-26T00:58:44.663Z,69.26
2019-04-26T01:01:15.120Z,68.81
2019-04-26T01:03:45.017Z,68.83
2019-04-26T01:06:15.971Z,69.39
2019-04-26T01:08:45.509Z,69.17
2019-04-26T01:11:14.027Z,69.63
2019-04-26T01:13:42.451Z,69.80
2019-04-26T01:16:10.935Z,70.05
2019-04-26T01:18:40.035Z,69.64
2019-04-26T01:21:10.997Z,69.61
2019-04-26T01:23:42.086Z,71.43
2019-04-26T01:26:25.907Z,73.26
2019-04-26T01:28:59.967Z,72.25
2019-04-26T01:31:30.966Z,73.43
2019-04-26T01:33:59.505Z,72.84
2019-04-26T01:36:31.021Z,73.74
2019-04-26T01:39:10.031Z,72.87
2019-04-26T01:41:40.223Z,72.64
2019-04-26T01:44:10.475Z,72.01
2019-04-26T01:46:44.489Z,71.94
2019-04-26T01:49:15.395Z,71.51
2019-04-26T01:51:52.693Z,71.61
2019-04-26T01:54:24.236Z,71.41
2019-04-26T01:56:55.699Z,70.63
2019-04-26T01:59:25.330Z,70.97
2019-04-26T02:02:11.725Z,70.63
2019-04-26T02:04:51.209Z,70.52
2019-04-26T02:07:21.779Z,70.70
2019-04-26T02:09:50.440Z,70.82
2019-04-26T02:12:18.968Z,73.49
2019-04-26T02:14:47.380Z,74.21
2019-04-26T02:17:15.845Z,73.65
2019-04-26T02:19:44.396Z,73.93
2019-04-26T02:22:14.619Z,73.19
2019-04-26T02:24:44.706Z,72.42
2019-04-26T02:27:15.004Z,72.53
2019-04-26T02:29:43.546Z,73.04
2019-04-26T02:32:12.401Z,71.94
2019-04-26T02:34:41.163Z,69.83
2019-04-26T02:37:12.646Z,70.73
2019-04-26T02:39:42.831Z,71.27
2019-04-26T02:42:19.726Z,71.34
2019-04-26T02:45:09.098Z,71.34
2019-04-26T02:47:46.087Z,71.08
2019-04-26T02:50:18.762Z,71.20
2019-04-26T02:53:02.219Z,70.98
2019-04-26T02:55:48.536Z,71.04
2019-04-26T02:58:20.046Z,70.80
2019-04-26T03:00:50.202Z,70.91
2019-04-26T03:03:20.528Z,70.48
2019-04-26T03:05:51.768Z,71.01
2019-04-26T03:08:22.877Z,70.64
2019-04-26T03:10:54.327Z,70.32
2019-04-26T03:13:27.474Z,70.53
2019-04-26T03:16:02.388Z,70.60
2019-04-26T03:18:36.981Z,70.33
2019-04-26T03:21:25.360Z,70.72
2019-04-26T03:24:02.855Z,70.37
2019-04-26T03:26:35.619Z,70.68
2019-04-26T03:29:43.747Z,71.01
2019-04-26T03:32:27.284Z,70.86
2019-04-26T03:35:17.818Z,71.01
2019-04-26T03:37:53.390Z,70.56
2019-04-26T03:40:43.200Z,71.45
2019-04-26T03:43:34.292Z,70.81
2019-04-26T03:46:21.196Z,71.89
2019-04-26T03:49:07.865Z,71.25
2019-04-26T03:51:48.415Z,71.82
2019-04-26T03:54:25.842Z,72.02
2019-04-26T03:57:04.955Z,72.04
2019-04-26T03:59:42.847Z,72.52
2019-04-26T04:02:16.060Z,72.56
2019-04-26T04:04:51.937Z,72.52
2019-04-26T04:07:36.194Z,72.69
2019-04-26T04:10:02.194Z,72.34
2019-04-26T04:12:41.466Z,72.79
2019-04-26T04:15:22.159Z,72.46
2019-04-26T04:17:53.732Z,72.62
2019-04-26T04:20:40.181Z,73.25
2019-04-26T04:23:20.938Z,73.86
2019-04-26T04:25:52.054Z,74.19
2019-04-26T04:28:42.071Z,75.60
2019-04-26T04:31:16.539Z,76.20
2019-04-26T04:33:49.633Z,77.04
2019-04-26T04:36:21.199Z,77.89
2019-04-26T04:39:13.583Z,79.43
2019-04-26T04:42:05.049Z,80.94
2019-04-26T04:45:10.833Z,82.39
2019-04-26T04:47:46.080Z,82.25
2019-04-26T04:50:19.124Z,83.51
2019-04-26T04:52:53.422Z,84.42
2019-04-26T04:55:42.803Z,85.25
2019-04-26T04:58:14.598Z,85.15
2019-04-26T05:00:59.825Z,84.71
2019-04-26T05:03:46.991Z,84.76
2019-04-26T05:06:32.222Z,84.77
2019-04-26T05:09:09.778Z,85.30
2019-04-26T05:11:56.038Z,85.64
2019-04-26T05:15:00.706Z,86.13
2019-04-26T05:17:47.512Z,86.85
2019-04-26T05:20:24.971Z,87.20
2019-04-26T05:23:16.356Z,87.32
2019-04-26T05:25:58.474Z,87.82
2019-04-26T05:28:48.012Z,87.71
2019-04-26T05:31:23.621Z,87.59
2019-04-26T05:34:06.824Z,87.99
2019-04-26T05:36:53.271Z,88.02
2019-04-26T05:39:27.590Z,88.74
2019-04-26T05:42:18.654Z,87.56
2019-04-26T05:45:26.063Z,88.35
2019-04-26T05:48:33.890Z,87.63
2019-04-26T05:51:28.082Z,87.92
2019-04-26T05:54:16.672Z,87.42
2019-04-26T05:56:58.908Z,88.18
2019-04-26T05:59:33.119Z,87.15
2019-04-26T06:02:46.192Z,88.12
2019-04-26T06:05:28.281Z,87.64
2019-04-26T06:08:31.357Z,88.10
2019-04-26T06:11:00.383Z,89.20
2019-04-26T06:13:52.168Z,89.13
2019-04-26T06:16:34.081Z,88.31
2019-04-26T06:19:43.091Z,88.59
2019-04-26T06:22:40.121Z,89.14
2019-04-26T06:25:28.303Z,89.02
2019-04-26T06:28:00.691Z,88.06
2019-04-26T06:30:45.683Z,87.93
2019-04-26T06:33:35.918Z,87.80
2019-04-26T06:36:09.395Z,87.63
2019-04-26T06:39:02.288Z,88.48
2019-04-26T06:42:06.683Z,86.90
2019-04-26T06:44:51.687Z,83.29
2019-04-26T06:47:33.705Z,83.17
2019-04-26T06:50:12.299Z,83.75
2019-04-26T06:52:52.634Z,83.61
2019-04-26T06:55:30.086Z,83.38
2019-04-26T06:58:18.246Z,81.96
2019-04-26T07:01:09.555Z,83.30
2019-04-26T07:03:59.696Z,85.44
2019-04-26T07:06:35.310Z,86.12
2019-04-26T07:09:08.598Z,84.77
2019-04-26T07:12:10.285Z,84.39
2019-04-26T07:15:03.794Z,84.51
2019-04-26T07:18:12.773Z,84.85
2019-04-26T07:20:48.953Z,85.65
2019-04-26T07:23:31.186Z,84.29
2019-04-26T07:26:14.831Z,84.61
2019-04-26T07:28:47.729Z,84.80
2019-04-26T07:31:40.552Z,86.28
2019-04-26T07:34:42.354Z,86.26
2019-04-26T07:37:29.004Z,86.96
2019-04-26T07:40:28.975Z,84.69
2019-04-26T07:43:10.996Z,84.42
2019-04-26T07:45:58.975Z,84.15
2019-04-26T07:48:36.527Z,83.42
2019-04-26T07:51:41.489Z,83.94
2019-04-26T07:54:30.007Z,83.46
2019-04-26T07:57:39.654Z,83.98
2019-04-26T08:00:27.683Z,84.44
2019-04-26T08:03:09.531Z,83.42
2019-04-26T08:05:45.247Z,82.04
2019-04-26T08:08:16.779Z,83.05
2019-04-26T08:10:50.950Z,83.58
2019-04-26T08:13:22.208Z,81.97
2019-04-26T08:16:01.485Z,83.91
2019-04-26T08:18:37.483Z,83.87
2019-04-26T08:21:14.415Z,83.43
2019-04-26T08:23:45.571Z,84.18
2019-04-26T08:26:16.202Z,84.16
2019-04-26T08:28:46.829Z,84.51
2019-04-26T08:31:20.047Z,83.61
2019-04-26T08:33:53.311Z,82.65
2019-04-26T08:36:27.181Z,81.31
2019-04-26T08:38:55.342Z,81.82
2019-04-26T08:41:24.801Z,81.70
2019-04-26T08:44:14.438Z,80.46
2019-04-26T08:46:46.486Z,81.46
2019-04-26T08:49:35.178Z,81.90
2019-04-26T08:52:14.169Z,81.69
2019-04-26T08:54:39.826Z,80.15
2019-04-26T08:57:11.214Z,82.03
2019-04-26T08:59:42.768Z,81.83
2019-04-26T09:02:30.911Z,81.98
2019-04-26T09:05:22.787Z,82.14
2019-04-26T09:07:57.626Z,82.01
2019-04-26T09:10:27.297Z,83.46
2019-04-26T09:12:58.833Z,83.30
2019-04-26T09:15:52.938Z,84.36
2019-04-26T09:18:21.440Z,84.33
2019-04-26T09:20:50.177Z,81.54
2019-04-26T09:23:40.241Z,81.18
2019-04-26T09:26:25.551Z,81.94
2019-04-26T09:29:02.104Z,83.68
2019-04-26T09:31:44.355Z,80.65
2019-04-26T09:34:15.535Z,81.00
2019-04-26T09:36:44.422Z,82.51
2019-04-26T09:39:14.830Z,83.31
2019-04-26T09:41:43.868Z,82.24
2019-04-26T09:44:20.090Z,82.08
2019-04-26T09:46:52.710Z,82.41
2019-04-26T09:49:25.434Z,83.19
2019-04-26T09:51:54.405Z,80.22
2019-04-26T09:54:22.898Z,82.10
2019-04-26T09:56:51.817Z,80.88
2019-04-26T09:59:20.438Z,80.62
2019-04-26T10:01:49.243Z,80.25
2019-04-26T10:04:17.950Z,79.60
2019-04-26T10:06:48.504Z,80.99
2019-04-26T10:09:21.347Z,80.84
2019-04-26T10:12:03.544Z,82.88
2019-04-26T10:17:21.530Z,79.71
2019-04-26T10:19:51.805Z,79.73
2019-04-26T10:22:20.811Z,77.48
2019-04-26T10:24:49.603Z,77.18
2019-04-26T10:27:18.708Z,80.36
2019-04-26T10:29:47.489Z,81.08
2019-04-26T10:32:16.247Z,79.29
2019-04-26T10:34:47.412Z,80.21
2019-04-26T10:37:15.513Z,78.45
2019-04-26T10:39:43.929Z,79.05
2019-04-26T10:42:12.613Z,81.51
2019-04-26T10:44:41.160Z,78.34
2019-04-26T10:47:09.755Z,78.95
2019-04-26T10:49:46.705Z,80.13
2019-04-26T10:52:24.528Z,81.36
2019-04-26T10:55:12.231Z,82.75
2019-04-26T10:57:42.824Z,81.94
2019-04-26T11:00:14.047Z,82.09
2019-04-26T11:02:43.806Z,81.12
2019-04-26T11:05:18.156Z,81.73
2019-04-26T11:07:42.786Z,80.52
2019-04-26T11:10:11.433Z,80.98
2019-04-26T11:12:43.329Z,81.09
2019-04-26T11:15:11.637Z,80.88
2019-04-26T11:17:40.105Z,78.25
2019-04-26T11:20:10.525Z,78.38
2019-04-26T11:22:39.206Z,81.14
2019-04-26T11:25:08.646Z,78.63
2019-04-26T11:27:40.210Z,80.46
2019-04-26T11:30:12.932Z,81.26
2019-04-26T11:32:39.094Z,81.30
2019-04-26T11:35:07.926Z,81.58
2019-04-26T11:37:36.423Z,79.08
2019-04-26T11:40:10.189Z,79.12
2019-04-26T11:42:37.251Z,78.56
2019-04-26T11:45:14.574Z,77.66
2019-04-26T11:47:54.302Z,76.04
2019-04-26T11:50:12.509Z,76.56
2019-04-26T11:52:42.211Z,76.96
2019-04-26T11:55:11.016Z,77.54
2019-04-26T11:57:40.087Z,77.31
2019-04-26T12:00:10.563Z,76.23
2019-04-26T12:02:39.154Z,76.12
2019-04-26T12:05:25.752Z,74.20
2019-04-26T12:07:55.944Z,73.59
2019-04-26T12:10:27.044Z,75.47
2019-04-26T12:13:05.096Z,74.09
2019-04-26T12:15:30.484Z,75.70
2019-04-26T12:17:58.723Z,75.40
2019-04-26T12:20:26.829Z,77.56
2019-04-26T12:22:55.425Z,77.46
2019-04-26T12:25:23.843Z,78.25
2019-04-26T12:27:53.525Z,78.37
2019-04-26T12:30:26.384Z,76.02
2019-04-26T12:32:52.504Z,75.59
2019-04-26T12:35:21.049Z,76.76
2019-04-26T12:37:50.712Z,75.79
2019-04-26T12:40:19.760Z,74.04
2019-04-26T12:42:48.455Z,76.41
2019-04-26T12:45:24.957Z,76.04
2019-04-26T12:47:55.027Z,74.86
2019-04-26T12:50:23.841Z,73.59
2019-04-26T12:52:55.525Z,76.70
2019-04-26T12:55:22.649Z,76.79
2019-04-26T12:57:51.136Z,74.57
2019-04-26T13:00:21.870Z,75.23
2019-04-26T13:02:54.219Z,76.48
2019-04-26T13:05:20.681Z,75.14
2019-04-26T13:07:52.957Z,75.84
2019-04-26T13:10:39.656Z,76.09
2019-04-26T13:13:18.462Z,76.65
2019-04-26T13:15:56.383Z,78.95
2019-04-26T13:18:24.825Z,78.83
2019-04-26T13:20:53.421Z,79.02
2019-04-26T13:23:25.438Z,77.47
2019-04-26T13:25:55.450Z,78.14
2019-04-26T13:28:22.349Z,78.65
2019-04-26T13:30:51.509Z,78.03
2019-04-26T13:33:23.284Z,78.65
2019-04-26T13:36:02.196Z,78.78
2019-04-26T13:38:21.100Z,76.63
2019-04-26T13:40:49.632Z,77.54
2019-04-26T13:43:18.139Z,78.56
2019-04-26T13:45:54.235Z,77.06
2019-04-26T13:48:29.777Z,76.59
2019-04-26T13:51:05.617Z,74.55
2019-04-26T13:53:33.103Z,74.85
2019-04-26T13:56:02.288Z,74.01
2019-04-26T13:58:32.042Z,75.49
2019-04-26T14:01:00.513Z,72.75
2019-04-26T14:03:31.756Z,71.94
2019-04-26T14:05:59.271Z,73.74
2019-04-26T14:08:27.871Z,70.68
2019-04-26T14:10:56.571Z,69.18
2019-04-26T14:13:26.105Z,71.70
2019-04-26T14:15:54.714Z,70.51
2019-04-26T14:18:23.204Z,70.52
2019-04-26T14:20:54.749Z,69.35
2019-04-26T14:23:39.750Z,68.23
2019-04-26T14:26:18.697Z,67.92
2019-04-26T14:28:47.131Z,69.41
2019-04-26T14:31:16.848Z,71.45
2019-04-26T14:33:46.179Z,70.33
2019-04-26T14:36:18.145Z,69.78
2019-04-26T14:38:44.823Z,69.69
2019-04-26T14:41:17.584Z,70.20
2019-04-26T14:43:43.462Z,69.53
2019-04-26T14:46:14.716Z,67.62
2019-04-26T14:48:44.642Z,65.93
2019-04-26T14:51:16.844Z,66.49
2019-04-26T14:53:42.545Z,68.41
2019-04-26T14:56:11.027Z,68.13
2019-04-26T14:58:39.599Z,68.53
2019-04-26T15:01:10.021Z,68.41
2019-04-26T15:03:43.108Z,69.35
2019-04-26T15:06:16.758Z,69.06
2019-04-26T15:08:46.816Z,69.48
2019-04-26T15:11:13.895Z,67.39
2019-04-26T15:13:43.748Z,68.10
2019-04-26T15:16:14.275Z,67.16
2019-04-26T15:18:42.939Z,67.20
2019-04-26T15:21:12.901Z,68.98
2019-04-26T15:23:41.536Z,68.64
2019-04-26T15:26:09.971Z,68.90
2019-04-26T15:28:38.619Z,66.59
2019-04-26T15:31:07.203Z,65.85
2019-04-26T15:33:36.074Z,68.02
2019-04-26T15:36:06.411Z,69.26
2019-04-26T15:38:41.540Z,68.07
2019-04-26T15:41:11.439Z,67.86
2019-04-26T15:43:39.237Z,67.31
2019-04-26T15:46:13.335Z,70.00
2019-04-26T15:48:43.703Z,67.55
2019-04-26T15:51:13.746Z,68.67
2019-04-26T15:53:47.914Z,68.16
2019-04-26T15:56:16.274Z,67.48
2019-04-26T15:58:47.742Z,66.88
2019-04-26T16:01:13.866Z,67.78
2019-04-26T16:03:44.587Z,67.64
2019-04-26T16:06:12.804Z,66.63
2019-04-26T16:08:43.756Z,65.63
2019-04-26T16:11:12.483Z,66.46
2019-04-26T16:13:45.121Z,66.76
2019-04-26T16:16:12.611Z,67.24
2019-04-26T16:18:42.996Z,67.36
2019-04-26T16:21:17.683Z,66.69
2019-04-26T16:23:51.015Z,68.46
2019-04-26T16:26:15.244Z,65.60
2019-04-26T16:29:00.427Z,66.45
2019-04-26T16:31:47.142Z,65.10
2019-04-26T16:34:17.227Z,66.99
2019-04-26T16:36:45.696Z,66.96
2019-04-26T16:39:14.858Z,67.74
2019-04-26T16:41:43.429Z,68.74
2019-04-26T16:44:13.004Z,68.73
2019-04-26T16:46:43.498Z,70.27
2019-04-26T16:49:14.016Z,70.73
2019-04-26T16:51:43.573Z,70.57
2019-04-26T16:54:20.701Z,70.33
2019-04-26T16:56:43.909Z,70.83
2019-04-26T16:59:14.205Z,70.80
2019-04-26T17:01:47.155Z,70.77
2019-04-26T17:04:14.139Z,70.91
2019-04-26T17:06:44.918Z,71.62
2019-04-26T17:09:14.410Z,71.44
2019-04-26T17:11:43.557Z,71.94
2019-04-26T17:14:13.254Z,71.85
2019-04-26T17:16:42.400Z,72.59
2019-04-26T17:19:13.637Z,71.37
2019-04-26T17:21:44.000Z,72.78
2019-04-26T17:24:19.876Z,72.96
2019-04-26T17:26:52.875Z,72.62
2019-04-26T17:29:21.315Z,71.57
2019-04-26T17:31:49.841Z,72.02
2019-04-26T17:34:22.536Z,72.99
2019-04-26T17:36:50.566Z,72.31
2019-04-26T17:39:18.960Z,72.80
2019-04-26T17:41:50.602Z,73.67
2019-04-26T17:44:20.636Z,73.75
2019-04-26T17:46:48.784Z,73.96
2019-04-26T17:49:21.402Z,74.58
2019-04-26T17:51:53.140Z,74.07
2019-04-26T17:54:34.336Z,74.90
2019-04-26T17:56:48.868Z,75.43
2019-04-26T17:59:32.714Z,75.15
2019-04-26T18:01:57.266Z,75.81
2019-04-26T18:04:31.621Z,75.55
2019-04-26T18:06:55.858Z,75.52
2019-04-26T18:09:38.995Z,76.09
2019-04-26T18:11:51.045Z,75.81
2019-04-26T18:14:21.499Z,76.62
2019-04-26T18:16:53.170Z,75.82
2019-04-26T18:19:26.340Z,76.53
2019-04-26T18:21:59.878Z,76.75
2019-04-26T18:24:32.343Z,76.75
2019-04-26T18:27:00.524Z,76.58
2019-04-26T18:29:30.403Z,76.59
2019-04-26T18:32:03.429Z,76.85
2019-04-26T18:34:30.539Z,77.84
2019-04-26T18:37:02.014Z,77.53
2019-04-26T18:39:29.846Z,77.73
2019-04-26T18:42:01.967Z,78.54
2019-04-26T18:44:36.946Z,78.53
2019-04-26T18:47:03.443Z,78.20
2019-04-26T18:49:32.951Z,79.27
2019-04-26T18:52:03.608Z,78.55
2019-04-26T18:54:34.610Z,79.14
2019-04-26T18:57:03.391Z,79.68
2019-04-26T18:59:31.871Z,79.47
2019-04-26T19:02:00.491Z,79.80
2019-04-26T19:04:29.099Z,79.66
2019-04-26T19:06:57.569Z,79.58
2019-04-26T19:09:26.726Z,79.10
2019-04-26T19:11:56.264Z,79.83
2019-04-26T19:14:29.627Z,79.68
2019-04-26T19:17:14.919Z,80.89
2019-04-26T19:19:54.155Z,80.89
2019-04-26T19:22:22.707Z,81.49
2019-04-26T19:24:55.770Z,81.42
2019-04-26T19:27:26.530Z,81.28
2019-04-26T19:29:51.824Z,82.39
2019-04-26T19:32:21.906Z,82.25
2019-04-26T19:34:52.388Z,82.99
2019-04-26T19:37:23.032Z,83.48
2019-04-26T19:39:51.347Z,83.11
2019-04-26T19:42:19.843Z,82.86
2019-04-26T19:44:49.398Z,82.71
2019-04-26T19:47:20.282Z,83.15
2019-04-26T19:49:53.764Z,82.52
2019-04-26T19:52:22.343Z,83.11
2019-04-26T19:54:53.024Z,83.31
2019-04-26T19:57:26.016Z,83.29
2019-04-26T19:59:54.483Z,83.04
2019-04-26T20:02:26.780Z,83.20
2019-04-26T20:04:53.260Z,83.62
2019-04-26T20:07:24.225Z,83.57
2019-04-26T20:09:52.412Z,83.63
2019-04-26T20:12:23.422Z,84.11
2019-04-26T20:14:56.728Z,84.36
2019-04-26T20:17:23.331Z,84.80
2019-04-26T20:19:54.422Z,85.39
2019-04-26T20:22:28.462Z,85.39
2019-04-26T20:24:55.990Z,85.06
2019-04-26T20:27:24.564Z,85.11
2019-04-26T20:29:52.770Z,84.66
2019-04-26T20:32:28.623Z,84.15
2019-04-26T20:34:58.732Z,84.32
2019-04-26T20:37:27.186Z,84.18
2019-04-26T20:40:15.485Z,83.92
2019-04-26T20:42:25.753Z,84.00
2019-04-26T20:44:54.230Z,84.75
2019-04-26T20:47:22.735Z,85.30
2019-04-26T20:50:00.580Z,86.02
2019-04-26T20:52:24.889Z,86.11
2019-04-26T20:54:54.098Z,86.15
2019-04-26T20:57:26.656Z,86.18
2019-04-26T21:00:01.303Z,85.80
2019-04-26T21:02:24.779Z,85.77
2019-04-26T21:04:52.755Z,85.72
2019-04-26T21:07:21.902Z,86.00
2019-04-26T21:09:50.400Z,85.48
2019-04-26T21:12:19.127Z,85.10
2019-04-26T21:14:47.653Z,84.86
2019-04-26T21:17:19.475Z,85.21
2019-04-26T21:19:49.891Z,85.26
2019-04-26T21:22:18.272Z,85.48
2019-04-26T21:24:50.629Z,85.47
2019-04-26T21:27:25.689Z,85.60
2019-04-26T21:29:59.026Z,85.13
2019-04-26T21:32:43.734Z,85.45
2019-04-26T21:35:15.472Z,85.06
2019-04-26T21:37:49.447Z,85.21
2019-04-26T21:40:26.028Z,85.94
2019-04-26T21:42:59.353Z,86.02
2019-04-26T21:45:28.444Z,85.71
2019-04-26T21:47:54.352Z,86.40
2019-04-26T21:50:22.786Z,86.30
2019-04-26T21:52:51.298Z,85.92
2019-04-26T21:55:19.814Z,86.13
2019-04-26T21:57:48.521Z,86.01
2019-04-26T22:00:22.728Z,85.75
2019-04-26T22:02:51.308Z,85.15
2019-04-26T22:05:19.754Z,85.25
2019-04-26T22:07:48.260Z,85.69
2019-04-26T22:10:18.447Z,84.90
2019-04-26T22:12:46.892Z,85.46
2019-04-26T22:15:19.375Z,85.04
2019-04-26T22:17:52.970Z,85.04
2019-04-26T22:20:36.641Z,85.17
2019-04-26T22:23:23.668Z,84.52
2019-04-26T22:25:56.035Z,84.32
2019-04-26T22:28:26.884Z,83.78
2019-04-26T22:30:55.183Z,83.77
2019-04-26T22:33:27.438Z,83.75
2019-04-26T22:35:55.320Z,83.85
2019-04-26T22:38:26.772Z,84.02
2019-04-26T22:40:56.091Z,84.60
2019-04-26T22:43:38.294Z,84.07
2019-04-26T22:46:11.264Z,83.94
2019-04-26T22:48:41.326Z,84.03
2019-04-26T22:51:09.850Z,84.60
2019-04-26T22:53:38.431Z,85.29
2019-04-26T22:56:06.962Z,85.36
2019-04-26T22:58:35.649Z,86.24
2019-04-26T23:01:06.212Z,85.91
2019-04-26T23:03:36.605Z,85.56
2019-04-26T23:06:07.869Z,85.13
2019-04-26T23:08:38.141Z,85.29
2019-04-26T23:11:09.249Z,85.40
2019-04-26T23:13:46.096Z,84.81
2019-04-26T23:16:34.519Z,85.16
2019-04-26T23:19:07.753Z,84.85
2019-04-26T23:21:37.828Z,83.94
2019-04-26T23:24:06.315Z,83.94
2019-04-26T23:26:37.449Z,83.49
2019-04-26T23:29:08.561Z,83.96
2019-04-26T23:31:37.465Z,83.74
2019-04-26T23:34:06.050Z,83.74
2019-04-26T23:36:34.915Z,84.34
2019-04-26T23:39:07.748Z,83.99
2019-04-26T23:41:37.612Z,83.53
2019-04-26T23:44:06.719Z,84.25
2019-04-26T23:46:35.286Z,84.04
2019-04-26T23:49:03.823Z,84.43
2019-04-26T23:51:33.956Z,83.91
2019-04-26T23:54:03.293Z,84.33
2019-04-26T23:56:33.208Z,83.87
2019-04-26T23:59:03.571Z,83.48
